sensor_id;sensor_type;location;lat;lon;timestamp;temperature;humidity
81192;DHT22;70665;47.652;-2.730;2024-03-02T00:00:07;9.10;85.00
81192;DHT22;70665;47.652;-2.730;2024-03-02T00:02:43;9.10;85.80
81192;DHT22;70665;47.652;-2.730;2024-03-02T00:05:20;9.10;85.80
81192;DHT22;70665;47.652;-2.730;2024-03-02T00:07:52;9.20;85.20
81192;DHT22;70665;47.652;-2.730;2024-03-02T00:10:20;9.10;84.70
81192;DHT22;70665;47.652;-2.730;2024-03-02T00:12:48;9.00;83.60
81192;DHT22;70665;47.652;-2.730;2024-03-02T00:17:57;9.00;84.80
81192;DHT22;70665;47.652;-2.730;2024-03-02T00:20:25;9.00;86.60
81192;DHT22;70665;47.652;-2.730;2024-03-02T00:23:05;9.00;86.00
81192;DHT22;70665;47.652;-2.730;2024-03-02T00:25:48;9.00;87.60
81192;DHT22;70665;47.652;-2.730;2024-03-02T00:28:27;9.00;87.40
81192;DHT22;70665;47.652;-2.730;2024-03-02T00:31:06;8.80;85.80
81192;DHT22;70665;47.652;-2.730;2024-03-02T00:33:42;9.00;84.60
81192;DHT22;70665;47.652;-2.730;2024-03-02T00:36:08;9.00;84.80
81192;DHT22;70665;47.652;-2.730;2024-03-02T00:38:44;9.00;86.60
81192;DHT22;70665;47.652;-2.730;2024-03-02T00:41:16;9.10;87.00
81192;DHT22;70665;47.652;-2.730;2024-03-02T00:46:12;9.10;87.90
81192;DHT22;70665;47.652;-2.730;2024-03-02T00:48:47;9.10;83.00
81192;DHT22;70665;47.652;-2.730;2024-03-02T00:51:13;9.10;80.90
81192;DHT22;70665;47.652;-2.730;2024-03-02T00:53:38;9.20;80.00
81192;DHT22;70665;47.652;-2.730;2024-03-02T00:56:09;9.20;79.70
81192;DHT22;70665;47.652;-2.730;2024-03-02T00:58:36;9.30;78.80
81192;DHT22;70665;47.652;-2.730;2024-03-02T01:01:02;9.40;78.70
81192;DHT22;70665;47.652;-2.730;2024-03-02T01:03:27;9.40;79.30
81192;DHT22;70665;47.652;-2.730;2024-03-02T01:05:53;9.50;79.90
81192;DHT22;70665;47.652;-2.730;2024-03-02T01:08:18;9.40;83.60
81192;DHT22;70665;47.652;-2.730;2024-03-02T01:10:44;7.80;99.90
81192;DHT22;70665;47.652;-2.730;2024-03-02T01:13:10;7.00;99.90
81192;DHT22;70665;47.652;-2.730;2024-03-02T01:15:35;6.50;99.90
81192;DHT22;70665;47.652;-2.730;2024-03-02T01:18:01;6.70;99.90
81192;DHT22;70665;47.652;-2.730;2024-03-02T01:20:27;6.40;99.90
81192;DHT22;70665;47.652;-2.730;2024-03-02T01:22:52;6.30;99.90
81192;DHT22;70665;47.652;-2.730;2024-03-02T01:25:18;6.20;99.90
81192;DHT22;70665;47.652;-2.730;2024-03-02T01:27:44;6.10;99.90
81192;DHT22;70665;47.652;-2.730;2024-03-02T01:30:10;6.10;99.90
81192;DHT22;70665;47.652;-2.730;2024-03-02T01:32:38;6.20;99.90
81192;DHT22;70665;47.652;-2.730;2024-03-02T01:35:04;6.10;99.90
81192;DHT22;70665;47.652;-2.730;2024-03-02T01:37:30;6.30;99.90
81192;DHT22;70665;47.652;-2.730;2024-03-02T01:39:55;6.30;99.90
81192;DHT22;70665;47.652;-2.730;2024-03-02T01:42:21;6.40;99.90
81192;DHT22;70665;47.652;-2.730;2024-03-02T01:44:47;6.70;99.90
81192;DHT22;70665;47.652;-2.730;2024-03-02T01:47:13;6.80;99.90
81192;DHT22;70665;47.652;-2.730;2024-03-02T01:49:39;7.00;99.90
81192;DHT22;70665;47.652;-2.730;2024-03-02T01:52:06;7.10;99.90
81192;DHT22;70665;47.652;-2.730;2024-03-02T01:54:32;7.20;99.90
81192;DHT22;70665;47.652;-2.730;2024-03-02T01:56:58;7.30;99.90
81192;DHT22;70665;47.652;-2.730;2024-03-02T01:59:24;7.50;99.90
81192;DHT22;70665;47.652;-2.730;2024-03-02T02:01:50;7.60;99.90
81192;DHT22;70665;47.652;-2.730;2024-03-02T02:04:16;7.70;99.90
81192;DHT22;70665;47.652;-2.730;2024-03-02T02:06:43;7.90;99.90
81192;DHT22;70665;47.652;-2.730;2024-03-02T02:09:09;7.80;99.90
81192;DHT22;70665;47.652;-2.730;2024-03-02T02:11:35;7.80;99.90
81192;DHT22;70665;47.652;-2.730;2024-03-02T02:14:01;7.90;99.90
81192;DHT22;70665;47.652;-2.730;2024-03-02T02:16:26;8.10;99.90
81192;DHT22;70665;47.652;-2.730;2024-03-02T02:18:52;8.20;99.90
81192;DHT22;70665;47.652;-2.730;2024-03-02T02:21:17;8.40;99.90
81192;DHT22;70665;47.652;-2.730;2024-03-02T02:23:43;8.50;99.80
81192;DHT22;70665;47.652;-2.730;2024-03-02T02:26:13;8.50;99.20
81192;DHT22;70665;47.652;-2.730;2024-03-02T02:28:39;8.70;98.10
81192;DHT22;70665;47.652;-2.730;2024-03-02T02:31:15;8.70;98.40
81192;DHT22;70665;47.652;-2.730;2024-03-02T02:33:41;8.70;95.80
81192;DHT22;70665;47.652;-2.730;2024-03-02T02:36:07;8.40;94.60
81192;DHT22;70665;47.652;-2.730;2024-03-02T02:38:33;8.10;94.00
81192;DHT22;70665;47.652;-2.730;2024-03-02T02:41:02;8.00;98.00
81192;DHT22;70665;47.652;-2.730;2024-03-02T02:43:27;7.80;99.90
81192;DHT22;70665;47.652;-2.730;2024-03-02T02:45:53;7.60;99.90
81192;DHT22;70665;47.652;-2.730;2024-03-02T02:48:19;7.70;99.90
81192;DHT22;70665;47.652;-2.730;2024-03-02T02:50:44;7.50;99.90
81192;DHT22;70665;47.652;-2.730;2024-03-02T02:53:10;7.60;99.90
81192;DHT22;70665;47.652;-2.730;2024-03-02T02:55:35;7.50;99.90
81192;DHT22;70665;47.652;-2.730;2024-03-02T02:58:06;7.50;99.90
81192;DHT22;70665;47.652;-2.730;2024-03-02T03:00:31;7.50;99.90
81192;DHT22;70665;47.652;-2.730;2024-03-02T03:02:57;7.50;99.90
81192;DHT22;70665;47.652;-2.730;2024-03-02T03:05:22;7.40;99.90
81192;DHT22;70665;47.652;-2.730;2024-03-02T03:07:48;7.50;99.90
81192;DHT22;70665;47.652;-2.730;2024-03-02T03:10:15;7.30;99.90
81192;DHT22;70665;47.652;-2.730;2024-03-02T03:12:42;7.40;99.90
81192;DHT22;70665;47.652;-2.730;2024-03-02T03:15:08;7.30;99.90
81192;DHT22;70665;47.652;-2.730;2024-03-02T03:17:34;7.40;99.90
81192;DHT22;70665;47.652;-2.730;2024-03-02T03:20:00;7.20;99.90
81192;DHT22;70665;47.652;-2.730;2024-03-02T03:22:26;7.40;99.90
81192;DHT22;70665;47.652;-2.730;2024-03-02T03:24:52;7.40;99.90
81192;DHT22;70665;47.652;-2.730;2024-03-02T03:27:18;7.50;99.90
81192;DHT22;70665;47.652;-2.730;2024-03-02T03:29:45;7.40;99.90
81192;DHT22;70665;47.652;-2.730;2024-03-02T03:32:10;7.60;99.90
81192;DHT22;70665;47.652;-2.730;2024-03-02T03:34:36;7.60;99.90
81192;DHT22;70665;47.652;-2.730;2024-03-02T03:37:02;7.70;99.90
81192;DHT22;70665;47.652;-2.730;2024-03-02T03:39:28;7.70;99.90
81192;DHT22;70665;47.652;-2.730;2024-03-02T03:41:54;7.70;99.90
81192;DHT22;70665;47.652;-2.730;2024-03-02T03:44:19;7.80;99.90
81192;DHT22;70665;47.652;-2.730;2024-03-02T03:46:45;7.70;99.90
81192;DHT22;70665;47.652;-2.730;2024-03-02T03:49:11;7.90;99.90
81192;DHT22;70665;47.652;-2.730;2024-03-02T03:51:36;8.00;99.90
81192;DHT22;70665;47.652;-2.730;2024-03-02T03:54:02;7.80;99.90
81192;DHT22;70665;47.652;-2.730;2024-03-02T03:56:28;7.80;99.90
81192;DHT22;70665;47.652;-2.730;2024-03-02T03:58:53;7.60;99.90
81192;DHT22;70665;47.652;-2.730;2024-03-02T04:01:19;7.60;99.90
81192;DHT22;70665;47.652;-2.730;2024-03-02T04:03:44;7.60;99.90
81192;DHT22;70665;47.652;-2.730;2024-03-02T04:06:10;7.60;99.90
81192;DHT22;70665;47.652;-2.730;2024-03-02T04:08:36;7.60;99.90
81192;DHT22;70665;47.652;-2.730;2024-03-02T04:11:01;7.70;99.90
81192;DHT22;70665;47.652;-2.730;2024-03-02T04:13:28;7.60;99.90
81192;DHT22;70665;47.652;-2.730;2024-03-02T04:15:53;7.70;99.90
81192;DHT22;70665;47.652;-2.730;2024-03-02T04:18:19;7.50;99.90
81192;DHT22;70665;47.652;-2.730;2024-03-02T04:20:45;7.70;99.90
81192;DHT22;70665;47.652;-2.730;2024-03-02T04:23:10;7.50;99.90
81192;DHT22;70665;47.652;-2.730;2024-03-02T04:25:36;7.50;99.90
81192;DHT22;70665;47.652;-2.730;2024-03-02T04:28:01;7.50;99.90
81192;DHT22;70665;47.652;-2.730;2024-03-02T04:30:27;7.40;99.90
81192;DHT22;70665;47.652;-2.730;2024-03-02T04:32:52;7.50;99.90
81192;DHT22;70665;47.652;-2.730;2024-03-02T04:35:18;7.60;99.90
81192;DHT22;70665;47.652;-2.730;2024-03-02T04:37:44;7.40;99.90
81192;DHT22;70665;47.652;-2.730;2024-03-02T04:40:10;7.00;99.90
81192;DHT22;70665;47.652;-2.730;2024-03-02T04:42:35;7.00;99.90
81192;DHT22;70665;47.652;-2.730;2024-03-02T04:45:01;6.80;99.90
81192;DHT22;70665;47.652;-2.730;2024-03-02T04:47:27;6.80;99.90
81192;DHT22;70665;47.652;-2.730;2024-03-02T04:49:53;6.70;99.90
81192;DHT22;70665;47.652;-2.730;2024-03-02T04:52:18;6.80;99.90
81192;DHT22;70665;47.652;-2.730;2024-03-02T04:54:44;6.90;99.90
81192;DHT22;70665;47.652;-2.730;2024-03-02T04:57:28;7.00;99.90
81192;DHT22;70665;47.652;-2.730;2024-03-02T04:59:54;6.80;99.90
81192;DHT22;70665;47.652;-2.730;2024-03-02T05:02:19;6.80;99.90
81192;DHT22;70665;47.652;-2.730;2024-03-02T05:04:45;6.90;99.90
81192;DHT22;70665;47.652;-2.730;2024-03-02T05:07:11;6.80;99.90
81192;DHT22;70665;47.652;-2.730;2024-03-02T05:09:36;6.90;99.90
81192;DHT22;70665;47.652;-2.730;2024-03-02T05:12:02;6.70;99.90
81192;DHT22;70665;47.652;-2.730;2024-03-02T05:14:48;6.60;99.90
81192;DHT22;70665;47.652;-2.730;2024-03-02T05:17:14;6.50;99.90
81192;DHT22;70665;47.652;-2.730;2024-03-02T05:19:39;6.60;99.90
81192;DHT22;70665;47.652;-2.730;2024-03-02T05:22:05;6.40;99.90
81192;DHT22;70665;47.652;-2.730;2024-03-02T05:24:31;6.40;99.90
81192;DHT22;70665;47.652;-2.730;2024-03-02T05:26:56;6.20;99.90
81192;DHT22;70665;47.652;-2.730;2024-03-02T05:29:22;6.30;99.90
81192;DHT22;70665;47.652;-2.730;2024-03-02T05:31:48;6.30;99.90
81192;DHT22;70665;47.652;-2.730;2024-03-02T05:34:14;6.30;99.90
81192;DHT22;70665;47.652;-2.730;2024-03-02T05:36:40;6.40;99.90
81192;DHT22;70665;47.652;-2.730;2024-03-02T05:39:05;6.40;99.90
81192;DHT22;70665;47.652;-2.730;2024-03-02T05:41:34;6.50;99.90
81192;DHT22;70665;47.652;-2.730;2024-03-02T05:44:00;6.60;99.90
81192;DHT22;70665;47.652;-2.730;2024-03-02T05:46:26;6.70;99.90
81192;DHT22;70665;47.652;-2.730;2024-03-02T05:48:52;6.60;99.90
81192;DHT22;70665;47.652;-2.730;2024-03-02T05:51:17;6.70;99.90
81192;DHT22;70665;47.652;-2.730;2024-03-02T05:53:43;6.60;99.90
81192;DHT22;70665;47.652;-2.730;2024-03-02T05:56:09;6.60;99.90
81192;DHT22;70665;47.652;-2.730;2024-03-02T05:58:35;6.60;99.90
81192;DHT22;70665;47.652;-2.730;2024-03-02T06:01:19;6.60;99.90
81192;DHT22;70665;47.652;-2.730;2024-03-02T06:03:44;6.70;99.90
81192;DHT22;70665;47.652;-2.730;2024-03-02T06:06:10;6.50;99.90
81192;DHT22;70665;47.652;-2.730;2024-03-02T06:08:35;6.70;99.90
81192;DHT22;70665;47.652;-2.730;2024-03-02T06:11:01;6.40;99.90
81192;DHT22;70665;47.652;-2.730;2024-03-02T06:13:27;6.60;99.90
81192;DHT22;70665;47.652;-2.730;2024-03-02T06:15:52;6.60;99.90
81192;DHT22;70665;47.652;-2.730;2024-03-02T06:18:18;6.40;99.90
81192;DHT22;70665;47.652;-2.730;2024-03-02T06:20:44;6.40;99.90
81192;DHT22;70665;47.652;-2.730;2024-03-02T06:23:10;6.30;99.90
81192;DHT22;70665;47.652;-2.730;2024-03-02T06:25:35;6.30;99.90
81192;DHT22;70665;47.652;-2.730;2024-03-02T06:28:01;6.30;99.90
81192;DHT22;70665;47.652;-2.730;2024-03-02T06:30:26;6.40;99.90
81192;DHT22;70665;47.652;-2.730;2024-03-02T06:32:52;6.30;99.90
81192;DHT22;70665;47.652;-2.730;2024-03-02T06:35:18;6.40;99.90
81192;DHT22;70665;47.652;-2.730;2024-03-02T06:37:43;6.30;99.90
81192;DHT22;70665;47.652;-2.730;2024-03-02T06:40:09;6.40;99.90
81192;DHT22;70665;47.652;-2.730;2024-03-02T06:42:35;6.50;99.90
81192;DHT22;70665;47.652;-2.730;2024-03-02T06:45:02;6.30;99.90
81192;DHT22;70665;47.652;-2.730;2024-03-02T06:47:27;6.30;99.90
81192;DHT22;70665;47.652;-2.730;2024-03-02T06:49:53;6.30;99.90
81192;DHT22;70665;47.652;-2.730;2024-03-02T06:52:19;6.50;99.90
81192;DHT22;70665;47.652;-2.730;2024-03-02T06:54:46;6.40;99.90
81192;DHT22;70665;47.652;-2.730;2024-03-02T06:57:12;6.50;99.90
81192;DHT22;70665;47.652;-2.730;2024-03-02T06:59:37;6.60;99.90
81192;DHT22;70665;47.652;-2.730;2024-03-02T07:02:03;6.70;99.90
81192;DHT22;70665;47.652;-2.730;2024-03-02T07:04:29;6.60;99.90
81192;DHT22;70665;47.652;-2.730;2024-03-02T07:06:54;6.80;99.90
81192;DHT22;70665;47.652;-2.730;2024-03-02T07:09:20;6.80;99.90
81192;DHT22;70665;47.652;-2.730;2024-03-02T07:11:48;6.90;99.90
81192;DHT22;70665;47.652;-2.730;2024-03-02T07:14:14;7.00;99.90
81192;DHT22;70665;47.652;-2.730;2024-03-02T07:16:40;6.90;99.90
81192;DHT22;70665;47.652;-2.730;2024-03-02T07:19:06;6.90;99.90
81192;DHT22;70665;47.652;-2.730;2024-03-02T07:21:32;7.00;99.90
81192;DHT22;70665;47.652;-2.730;2024-03-02T07:23:58;7.10;99.90
81192;DHT22;70665;47.652;-2.730;2024-03-02T07:26:25;7.10;99.90
81192;DHT22;70665;47.652;-2.730;2024-03-02T07:28:51;7.20;99.90
81192;DHT22;70665;47.652;-2.730;2024-03-02T07:31:16;7.20;99.90
81192;DHT22;70665;47.652;-2.730;2024-03-02T07:33:44;7.20;99.90
81192;DHT22;70665;47.652;-2.730;2024-03-02T07:36:11;7.00;99.90
81192;DHT22;70665;47.652;-2.730;2024-03-02T07:38:36;7.10;99.90
81192;DHT22;70665;47.652;-2.730;2024-03-02T07:41:02;7.20;99.90
81192;DHT22;70665;47.652;-2.730;2024-03-02T07:43:30;7.20;99.90
81192;DHT22;70665;47.652;-2.730;2024-03-02T07:45:57;7.30;99.90
81192;DHT22;70665;47.652;-2.730;2024-03-02T07:48:23;7.60;99.90
81192;DHT22;70665;47.652;-2.730;2024-03-02T07:50:48;7.60;99.90
81192;DHT22;70665;47.652;-2.730;2024-03-02T07:53:14;7.40;99.90
81192;DHT22;70665;47.652;-2.730;2024-03-02T07:55:40;7.60;99.90
81192;DHT22;70665;47.652;-2.730;2024-03-02T07:58:06;7.50;99.90
81192;DHT22;70665;47.652;-2.730;2024-03-02T08:00:32;7.50;99.90
81192;DHT22;70665;47.652;-2.730;2024-03-02T08:02:57;7.40;99.90
81192;DHT22;70665;47.652;-2.730;2024-03-02T08:05:23;7.40;99.90
81192;DHT22;70665;47.652;-2.730;2024-03-02T08:07:49;7.50;99.90
81192;DHT22;70665;47.652;-2.730;2024-03-02T08:10:18;7.60;99.90
81192;DHT22;70665;47.652;-2.730;2024-03-02T08:12:43;7.60;99.90
81192;DHT22;70665;47.652;-2.730;2024-03-02T08:15:09;7.60;99.90
81192;DHT22;70665;47.652;-2.730;2024-03-02T08:17:35;7.70;99.90
81192;DHT22;70665;47.652;-2.730;2024-03-02T08:20:00;7.70;99.90
81192;DHT22;70665;47.652;-2.730;2024-03-02T08:22:26;7.80;99.90
81192;DHT22;70665;47.652;-2.730;2024-03-02T08:24:54;7.90;99.90
81192;DHT22;70665;47.652;-2.730;2024-03-02T08:27:20;8.00;99.90
81192;DHT22;70665;47.652;-2.730;2024-03-02T08:29:45;7.90;99.90
81192;DHT22;70665;47.652;-2.730;2024-03-02T08:32:11;8.00;99.90
81192;DHT22;70665;47.652;-2.730;2024-03-02T08:34:36;8.00;99.90
81192;DHT22;70665;47.652;-2.730;2024-03-02T08:37:02;8.20;99.90
81192;DHT22;70665;47.652;-2.730;2024-03-02T08:39:28;8.30;99.90
81192;DHT22;70665;47.652;-2.730;2024-03-02T08:41:54;8.30;99.90
81192;DHT22;70665;47.652;-2.730;2024-03-02T08:44:20;8.30;99.90
81192;DHT22;70665;47.652;-2.730;2024-03-02T08:46:46;8.50;99.90
81192;DHT22;70665;47.652;-2.730;2024-03-02T08:49:12;8.60;99.90
81192;DHT22;70665;47.652;-2.730;2024-03-02T08:51:38;8.70;99.90
81192;DHT22;70665;47.652;-2.730;2024-03-02T08:54:04;8.80;99.90
81192;DHT22;70665;47.652;-2.730;2024-03-02T08:56:30;8.80;99.90
81192;DHT22;70665;47.652;-2.730;2024-03-02T08:58:56;8.80;99.90
81192;DHT22;70665;47.652;-2.730;2024-03-02T09:01:21;8.90;99.90
81192;DHT22;70665;47.652;-2.730;2024-03-02T09:03:47;9.00;99.90
81192;DHT22;70665;47.652;-2.730;2024-03-02T09:06:14;9.00;99.90
81192;DHT22;70665;47.652;-2.730;2024-03-02T09:08:42;9.10;99.90
81192;DHT22;70665;47.652;-2.730;2024-03-02T09:11:08;9.10;99.90
81192;DHT22;70665;47.652;-2.730;2024-03-02T09:13:34;9.30;99.90
81192;DHT22;70665;47.652;-2.730;2024-03-02T09:16:00;9.40;99.90
81192;DHT22;70665;47.652;-2.730;2024-03-02T09:18:26;9.40;99.90
81192;DHT22;70665;47.652;-2.730;2024-03-02T09:20:52;9.50;99.90
81192;DHT22;70665;47.652;-2.730;2024-03-02T09:23:18;9.60;99.90
81192;DHT22;70665;47.652;-2.730;2024-03-02T09:25:43;9.80;99.90
81192;DHT22;70665;47.652;-2.730;2024-03-02T09:28:09;10.10;99.90
81192;DHT22;70665;47.652;-2.730;2024-03-02T09:30:35;10.30;99.90
81192;DHT22;70665;47.652;-2.730;2024-03-02T09:33:00;10.90;99.90
81192;DHT22;70665;47.652;-2.730;2024-03-02T09:35:26;11.20;93.70
81192;DHT22;70665;47.652;-2.730;2024-03-02T09:37:51;11.10;88.70
81192;DHT22;70665;47.652;-2.730;2024-03-02T09:40:17;11.10;91.30
81192;DHT22;70665;47.652;-2.730;2024-03-02T09:42:43;10.90;89.60
81192;DHT22;70665;47.652;-2.730;2024-03-02T09:45:10;10.80;86.70
81192;DHT22;70665;47.652;-2.730;2024-03-02T09:47:36;10.60;87.00
81192;DHT22;70665;47.652;-2.730;2024-03-02T09:50:02;10.60;85.40
81192;DHT22;70665;47.652;-2.730;2024-03-02T09:52:27;10.40;83.90
81192;DHT22;70665;47.652;-2.730;2024-03-02T09:54:53;10.40;82.90
81192;DHT22;70665;47.652;-2.730;2024-03-02T09:57:19;10.40;83.00
81192;DHT22;70665;47.652;-2.730;2024-03-02T09:59:44;10.40;84.00
81192;DHT22;70665;47.652;-2.730;2024-03-02T10:02:10;10.30;87.60
81192;DHT22;70665;47.652;-2.730;2024-03-02T10:04:36;10.30;87.10
81192;DHT22;70665;47.652;-2.730;2024-03-02T10:07:16;10.30;89.10
81192;DHT22;70665;47.652;-2.730;2024-03-02T10:09:43;10.20;88.80
81192;DHT22;70665;47.652;-2.730;2024-03-02T10:12:10;10.20;88.70
81192;DHT22;70665;47.652;-2.730;2024-03-02T10:14:37;10.30;87.80
81192;DHT22;70665;47.652;-2.730;2024-03-02T10:17:10;10.30;86.80
81192;DHT22;70665;47.652;-2.730;2024-03-02T10:19:36;10.30;86.80
81192;DHT22;70665;47.652;-2.730;2024-03-02T10:22:04;10.40;84.30
81192;DHT22;70665;47.652;-2.730;2024-03-02T10:27:16;10.40;83.60
81192;DHT22;70665;47.652;-2.730;2024-03-02T10:29:42;10.40;83.40
81192;DHT22;70665;47.652;-2.730;2024-03-02T10:32:11;10.40;83.00
81192;DHT22;70665;47.652;-2.730;2024-03-02T10:34:40;10.50;85.70
81192;DHT22;70665;47.652;-2.730;2024-03-02T10:37:06;10.60;79.30
81192;DHT22;70665;47.652;-2.730;2024-03-02T10:39:35;10.60;81.80
81192;DHT22;70665;47.652;-2.730;2024-03-02T10:42:02;10.50;82.20
81192;DHT22;70665;47.652;-2.730;2024-03-02T10:44:30;10.60;80.40
81192;DHT22;70665;47.652;-2.730;2024-03-02T10:46:55;10.80;79.40
81192;DHT22;70665;47.652;-2.730;2024-03-02T10:49:24;10.90;80.10
81192;DHT22;70665;47.652;-2.730;2024-03-02T10:51:51;11.20;79.30
81192;DHT22;70665;47.652;-2.730;2024-03-02T10:54:17;11.30;79.70
81192;DHT22;70665;47.652;-2.730;2024-03-02T10:56:44;11.30;77.00
81192;DHT22;70665;47.652;-2.730;2024-03-02T11:02:03;11.50;78.80
81192;DHT22;70665;47.652;-2.730;2024-03-02T11:04:30;11.60;77.50
81192;DHT22;70665;47.652;-2.730;2024-03-02T11:07:02;11.60;76.40
81192;DHT22;70665;47.652;-2.730;2024-03-02T11:09:29;11.70;73.70
81192;DHT22;70665;47.652;-2.730;2024-03-02T11:14:32;12.10;77.10
81192;DHT22;70665;47.652;-2.730;2024-03-02T11:17:03;12.30;71.20
81192;DHT22;70665;47.652;-2.730;2024-03-02T11:19:29;12.40;70.10
81192;DHT22;70665;47.652;-2.730;2024-03-02T11:21:56;12.20;70.60
81192;DHT22;70665;47.652;-2.730;2024-03-02T11:26:48;12.70;66.90
81192;DHT22;70665;47.652;-2.730;2024-03-02T11:32:05;13.00;69.40
81192;DHT22;70665;47.652;-2.730;2024-03-02T11:34:35;13.20;71.10
81192;DHT22;70665;47.652;-2.730;2024-03-02T11:37:02;13.10;69.00
81192;DHT22;70665;47.652;-2.730;2024-03-02T11:39:28;12.70;67.30
81192;DHT22;70665;47.652;-2.730;2024-03-02T11:41:57;12.20;69.80
81192;DHT22;70665;47.652;-2.730;2024-03-02T11:44:26;12.10;71.10
81192;DHT22;70665;47.652;-2.730;2024-03-02T11:47:01;12.10;71.10
81192;DHT22;70665;47.652;-2.730;2024-03-02T11:49:50;12.10;75.30
81192;DHT22;70665;47.652;-2.730;2024-03-02T11:52:17;12.30;72.30
81192;DHT22;70665;47.652;-2.730;2024-03-02T11:54:45;12.30;71.30
81192;DHT22;70665;47.652;-2.730;2024-03-02T11:57:13;12.40;72.80
81192;DHT22;70665;47.652;-2.730;2024-03-02T11:59:40;12.40;71.70
81192;DHT22;70665;47.652;-2.730;2024-03-02T12:02:06;12.60;70.90
81192;DHT22;70665;47.652;-2.730;2024-03-02T12:04:32;12.70;69.00
81192;DHT22;70665;47.652;-2.730;2024-03-02T12:07:01;12.90;69.30
81192;DHT22;70665;47.652;-2.730;2024-03-02T12:09:27;13.00;68.80
81192;DHT22;70665;47.652;-2.730;2024-03-02T12:12:06;13.10;71.40
81192;DHT22;70665;47.652;-2.730;2024-03-02T12:14:33;13.50;70.40
81192;DHT22;70665;47.652;-2.730;2024-03-02T12:16:59;13.80;70.50
81192;DHT22;70665;47.652;-2.730;2024-03-02T12:19:26;14.00;67.40
81192;DHT22;70665;47.652;-2.730;2024-03-02T12:21:58;14.10;65.80
81192;DHT22;70665;47.652;-2.730;2024-03-02T12:24:26;14.10;68.80
81192;DHT22;70665;47.652;-2.730;2024-03-02T12:26:52;13.70;65.10
81192;DHT22;70665;47.652;-2.730;2024-03-02T12:29:21;13.20;67.50
81192;DHT22;70665;47.652;-2.730;2024-03-02T12:31:48;12.70;69.40
81192;DHT22;70665;47.652;-2.730;2024-03-02T12:34:15;12.20;70.30
81192;DHT22;70665;47.652;-2.730;2024-03-02T12:36:41;12.20;70.90
81192;DHT22;70665;47.652;-2.730;2024-03-02T12:39:10;12.20;70.10
81192;DHT22;70665;47.652;-2.730;2024-03-02T12:41:36;13.10;68.50
81192;DHT22;70665;47.652;-2.730;2024-03-02T12:44:06;13.60;64.30
81192;DHT22;70665;47.652;-2.730;2024-03-02T12:46:32;13.90;64.10
81192;DHT22;70665;47.652;-2.730;2024-03-02T12:48:58;14.00;59.60
81192;DHT22;70665;47.652;-2.730;2024-03-02T12:51:24;14.40;61.40
81192;DHT22;70665;47.652;-2.730;2024-03-02T12:53:54;14.50;60.50
81192;DHT22;70665;47.652;-2.730;2024-03-02T12:56:20;15.10;61.30
81192;DHT22;70665;47.652;-2.730;2024-03-02T12:58:46;15.60;57.30
81192;DHT22;70665;47.652;-2.730;2024-03-02T13:01:14;16.20;58.50
81192;DHT22;70665;47.652;-2.730;2024-03-02T13:03:41;16.70;53.10
81192;DHT22;70665;47.652;-2.730;2024-03-02T13:06:07;17.00;52.20
81192;DHT22;70665;47.652;-2.730;2024-03-02T13:08:33;17.30;52.00
81192;DHT22;70665;47.652;-2.730;2024-03-02T13:10:59;16.80;48.10
81192;DHT22;70665;47.652;-2.730;2024-03-02T13:13:25;16.40;47.60
81192;DHT22;70665;47.652;-2.730;2024-03-02T13:15:50;15.90;47.90
81192;DHT22;70665;47.652;-2.730;2024-03-02T13:18:19;16.30;48.00
81192;DHT22;70665;47.652;-2.730;2024-03-02T13:20:45;16.90;48.60
81192;DHT22;70665;47.652;-2.730;2024-03-02T13:23:10;17.00;49.00
81192;DHT22;70665;47.652;-2.730;2024-03-02T13:25:36;17.40;46.10
81192;DHT22;70665;47.652;-2.730;2024-03-02T13:28:01;16.60;50.70
81192;DHT22;70665;47.652;-2.730;2024-03-02T13:30:28;15.10;51.30
81192;DHT22;70665;47.652;-2.730;2024-03-02T13:32:54;14.30;57.90
81192;DHT22;70665;47.652;-2.730;2024-03-02T13:35:20;13.90;59.80
81192;DHT22;70665;47.652;-2.730;2024-03-02T13:37:45;14.10;54.90
81192;DHT22;70665;47.652;-2.730;2024-03-02T13:40:11;15.70;54.10
81192;DHT22;70665;47.652;-2.730;2024-03-02T13:42:41;17.30;52.70
81192;DHT22;70665;47.652;-2.730;2024-03-02T13:45:07;16.90;44.60
81192;DHT22;70665;47.652;-2.730;2024-03-02T13:47:33;15.70;48.00
81192;DHT22;70665;47.652;-2.730;2024-03-02T13:49:58;14.80;54.90
81192;DHT22;70665;47.652;-2.730;2024-03-02T13:52:24;14.00;55.60
81192;DHT22;70665;47.652;-2.730;2024-03-02T13:54:51;14.40;52.10
81192;DHT22;70665;47.652;-2.730;2024-03-02T13:57:17;15.80;47.10
81192;DHT22;70665;47.652;-2.730;2024-03-02T13:59:45;17.20;48.30
81192;DHT22;70665;47.652;-2.730;2024-03-02T14:02:11;18.00;45.30
81192;DHT22;70665;47.652;-2.730;2024-03-02T14:04:37;18.40;40.20
81192;DHT22;70665;47.652;-2.730;2024-03-02T14:07:05;18.20;40.60
81192;DHT22;70665;47.652;-2.730;2024-03-02T14:09:33;16.00;42.90
81192;DHT22;70665;47.652;-2.730;2024-03-02T14:12:00;15.50;44.70
81192;DHT22;70665;47.652;-2.730;2024-03-02T14:14:28;16.60;44.50
81192;DHT22;70665;47.652;-2.730;2024-03-02T14:16:54;17.70;39.90
81192;DHT22;70665;47.652;-2.730;2024-03-02T14:19:21;18.80;40.60
81192;DHT22;70665;47.652;-2.730;2024-03-02T14:21:47;19.50;41.30
81192;DHT22;70665;47.652;-2.730;2024-03-02T14:24:13;19.90;39.20
81192;DHT22;70665;47.652;-2.730;2024-03-02T14:26:39;20.00;36.20
81192;DHT22;70665;47.652;-2.730;2024-03-02T14:29:05;19.70;39.40
81192;DHT22;70665;47.652;-2.730;2024-03-02T14:31:30;19.30;35.00
81192;DHT22;70665;47.652;-2.730;2024-03-02T14:34:00;19.40;41.40
81192;DHT22;70665;47.652;-2.730;2024-03-02T14:36:26;19.20;36.30
81192;DHT22;70665;47.652;-2.730;2024-03-02T14:38:55;19.50;38.20
81192;DHT22;70665;47.652;-2.730;2024-03-02T14:41:20;19.90;34.50
81192;DHT22;70665;47.652;-2.730;2024-03-02T14:43:46;20.30;43.20
81192;DHT22;70665;47.652;-2.730;2024-03-02T14:46:12;20.30;34.90
81192;DHT22;70665;47.652;-2.730;2024-03-02T14:48:37;21.00;34.90
81192;DHT22;70665;47.652;-2.730;2024-03-02T14:51:03;20.90;33.70
81192;DHT22;70665;47.652;-2.730;2024-03-02T14:53:29;20.40;30.90
81192;DHT22;70665;47.652;-2.730;2024-03-02T14:55:55;20.60;39.10
81192;DHT22;70665;47.652;-2.730;2024-03-02T14:58:20;21.20;35.90
81192;DHT22;70665;47.652;-2.730;2024-03-02T15:00:46;20.20;32.50
81192;DHT22;70665;47.652;-2.730;2024-03-02T15:03:12;18.10;35.90
81192;DHT22;70665;47.652;-2.730;2024-03-02T15:05:38;16.50;42.80
81192;DHT22;70665;47.652;-2.730;2024-03-02T15:08:05;16.10;40.70
81192;DHT22;70665;47.652;-2.730;2024-03-02T15:10:31;17.50;47.30
81192;DHT22;70665;47.652;-2.730;2024-03-02T15:12:57;19.30;37.40
81192;DHT22;70665;47.652;-2.730;2024-03-02T15:15:23;19.80;34.50
81192;DHT22;70665;47.652;-2.730;2024-03-02T15:17:49;19.20;31.60
81192;DHT22;70665;47.652;-2.730;2024-03-02T15:20:15;19.10;39.90
81192;DHT22;70665;47.652;-2.730;2024-03-02T15:22:41;19.30;33.00
81192;DHT22;70665;47.652;-2.730;2024-03-02T15:25:06;19.10;32.60
81192;DHT22;70665;47.652;-2.730;2024-03-02T15:27:32;19.10;31.20
81192;DHT22;70665;47.652;-2.730;2024-03-02T15:29:58;19.50;39.70
81192;DHT22;70665;47.652;-2.730;2024-03-02T15:32:24;19.80;38.70
81192;DHT22;70665;47.652;-2.730;2024-03-02T15:34:52;19.10;33.70
81192;DHT22;70665;47.652;-2.730;2024-03-02T15:37:18;18.90;34.90
81192;DHT22;70665;47.652;-2.730;2024-03-02T15:39:44;19.30;33.30